Time;durP1;ratioP1;P1;durP2;ratioP2;P2;SDS_P1;SDS_P2;PMS_P1;PMS_P2;Temp;Humidity;BMP_temperature;BMP_pressure;BME280_temperature;BME280_humidity;BME280_pressure;Samples;Min_cycle;Max_cycle;Signal;HPM_P1;HPM_P2
2023/07/03 00:00:12;;;;;;;;;5.50;3.75;;;;;-143.57;100.00;65101.44;5036121;28;45454;-44
2023/07/03 00:02:38;;;;;;;;;5.60;2.00;;;;;-143.57;100.00;65101.44;5036711;28;45477;-41
2023/07/03 00:05:06;;;;;;;;;3.00;3.00;;;;;-143.57;100.00;65101.44;5036817;28;45394;-41
2023/07/03 00:07:32;;;;;;;;;4.00;2.50;;;;;-143.57;100.00;65101.44;5037150;28;45402;-41
2023/07/03 00:09:57;;;;;;;;;3.00;1.75;;;;;-143.57;100.00;65101.44;5036433;28;45322;-41
2023/07/03 00:12:22;;;;;;;;;4.75;2.00;;;;;-143.57;100.00;65101.44;5036626;28;45320;-63
2023/07/03 00:14:49;;;;;;;;;2.00;2.00;;;;;-143.57;100.00;65101.44;5036658;28;45307;-65
2023/07/03 00:17:15;;;;;;;;;3.25;3.00;;;;;-143.57;100.00;65101.44;5037007;28;45271;-67
2023/07/03 00:19:40;;;;;;;;;6.75;2.00;;;;;-143.57;100.00;65101.44;5036458;28;46214;-66
2023/07/03 00:22:06;;;;;;;;;2.25;2.00;;;;;-143.57;100.00;65101.44;5036864;28;45319;-65
2023/07/03 00:24:32;;;;;;;;;2.00;1.00;;;;;-143.57;100.00;65101.44;5036762;28;45401;-57
2023/07/03 00:26:58;;;;;;;;;3.25;2.50;;;;;-143.57;100.00;65101.44;5037221;28;45469;-44
2023/07/03 00:29:23;;;;;;;;;3.00;3.00;;;;;-143.57;100.00;65101.44;5039675;28;46325;-45
2023/07/03 00:31:49;;;;;;;;;5.00;3.00;;;;;-143.57;100.00;65101.44;5039219;28;45465;-40
2023/07/03 00:34:15;;;;;;;;;3.00;3.00;;;;;-143.57;100.00;65101.44;5040375;28;45418;-51
2023/07/03 00:36:40;;;;;;;;;5.25;3.00;;;;;-143.57;100.00;65101.44;5040322;28;45398;-48
2023/07/03 00:39:06;;;;;;;;;4.00;2.25;;;;;-143.57;100.00;65101.44;5039849;28;45363;-46
2023/07/03 00:41:32;;;;;;;;;4.25;3.00;;;;;-143.57;100.00;65101.44;5039838;28;46026;-41
2023/07/03 00:43:57;;;;;;;;;2.00;2.00;;;;;-143.57;100.00;65101.44;5040081;28;45377;-55
2023/07/03 00:46:24;;;;;;;;;3.50;3.00;;;;;-143.57;100.00;65101.44;5040197;28;45584;-42
2023/07/03 00:48:50;;;;;;;;;2.75;2.75;;;;;-143.57;100.00;65101.44;5039577;28;46216;-61
2023/07/03 00:51:15;;;;;;;;;3.00;3.00;;;;;-143.57;100.00;65101.44;5039741;28;45338;-53
2023/07/03 00:53:41;;;;;;;;;6.00;4.25;;;;;-143.57;100.00;65101.44;5039863;28;45239;-62
2023/07/03 00:56:06;;;;;;;;;4.00;2.75;;;;;-143.57;100.00;65101.44;5039944;28;45481;-43
2023/07/03 00:58:32;;;;;;;;;6.00;3.00;;;;;-143.57;100.00;65101.44;5039546;28;46505;-50
2023/07/03 01:01:15;;;;;;;;;3.00;3.00;;;;;-143.57;100.00;65101.44;5039574;28;45334;-51
2023/07/03 01:03:47;;;;;;;;;6.75;4.00;;;;;-143.57;100.00;65101.44;5039712;28;45227;-45
2023/07/03 01:06:19;;;;;;;;;6.00;4.75;;;;;-143.57;100.00;65101.44;5039953;28;45345;-48
2023/07/03 01:08:56;;;;;;;;;7.00;3.00;;;;;-143.57;100.00;65101.44;5039296;28;46208;-42
2023/07/03 01:11:22;;;;;;;;;4.80;2.60;;;;;-143.57;100.00;65101.44;5039494;28;45382;-60
2023/07/03 01:13:53;;;;;;;;;7.00;4.00;;;;;-143.57;100.00;65101.44;5039451;28;45275;-63
2023/07/03 01:16:19;;;;;;;;;5.00;3.00;;;;;-143.57;100.00;65101.44;5039520;28;45603;-62
2023/07/03 01:18:46;;;;;;;;;2.75;2.75;;;;;-143.57;100.00;65101.44;5039120;28;46196;-60
2023/07/03 01:21:22;;;;;;;;;5.00;3.00;;;;;-143.57;100.00;65101.44;5039518;28;45371;-57
2023/07/03 01:23:56;;;;;;;;;5.50;3.75;;;;;-143.57;100.00;65101.44;5039406;28;45368;-60
2023/07/03 01:26:22;;;;;;;;;5.00;3.00;;;;;-143.57;100.00;65101.44;5039431;28;45600;-48
2023/07/03 01:28:54;;;;;;;;;4.00;2.50;;;;;-143.57;100.00;65101.44;5039168;28;45428;-49
2023/07/03 01:31:23;;;;;;;;;3.00;2.50;;;;;-143.57;100.00;65101.44;5038462;28;45375;-47
2023/07/03 01:33:49;;;;;;;;;2.00;2.00;;;;;-143.57;100.00;65101.44;5039410;28;45208;-47
2023/07/03 01:36:17;;;;;;;;;5.00;3.75;;;;;-143.57;100.00;65101.44;5039167;28;45548;-53
2023/07/03 01:38:44;;;;;;;;;6.25;3.75;;;;;-143.57;100.00;65101.44;5038579;28;47043;-50
2023/07/03 01:41:13;;;;;;;;;5.00;4.00;;;;;-143.57;100.00;65101.44;5038808;28;45487;-48
2023/07/03 01:43:40;;;;;;;;;6.25;3.25;;;;;-143.57;100.00;65101.44;5039030;28;45303;-56
2023/07/03 01:46:07;;;;;;;;;4.75;4.75;;;;;-143.57;100.00;65101.44;5020846;28;45600;-59
2023/07/03 01:48:33;;;;;;;;;4.50;4.25;;;;;-143.57;100.00;65101.44;5038692;28;46929;-62
2023/07/03 01:50:59;;;;;;;;;6.00;5.00;;;;;-143.57;100.00;65101.44;5038893;28;45437;-59
2023/07/03 01:53:29;;;;;;;;;3.50;3.50;;;;;-143.57;100.00;65101.44;5038920;28;45448;-58
2023/07/03 01:56:11;;;;;;;;;6.00;3.75;;;;;-143.57;100.00;65101.44;5021060;28;45538;-58
2023/07/03 01:58:59;;;;;;;;;4.25;4.00;;;;;-143.57;100.00;65101.44;5038439;28;46259;-61
2023/07/03 02:01:41;;;;;;;;;9.25;5.00;;;;;-143.57;100.00;65101.44;5038700;28;45304;-60
2023/07/03 02:04:27;;;;;;;;;5.25;3.25;;;;;-143.57;100.00;65101.44;5038810;28;45261;-62
2023/07/03 02:06:55;;;;;;;;;6.75;3.50;;;;;-143.57;100.00;65101.44;5038534;28;45247;-66
2023/07/03 02:09:21;;;;;;;;;5.75;3.00;;;;;-143.57;100.00;65101.44;5038640;28;45330;-65
2023/07/03 02:11:47;;;;;;;;;4.00;3.00;;;;;-143.57;100.00;65101.44;5038347;28;45428;-61
2023/07/03 02:14:13;;;;;;;;;6.75;6.25;;;;;-143.57;100.00;65101.44;5038706;28;45426;-67
2023/07/03 02:16:41;;;;;;;;;7.50;5.00;;;;;-143.57;100.00;65101.44;5038577;28;45247;-67
2023/07/03 02:19:08;;;;;;;;;8.00;4.00;;;;;-143.57;100.00;65101.44;5038461;28;45251;-44
2023/07/03 02:21:35;;;;;;;;;5.50;4.00;;;;;-143.57;100.00;65101.44;5038415;28;45746;-46
2023/07/03 02:24:01;;;;;;;;;3.25;2.50;;;;;-143.57;100.00;65101.44;5038495;28;45175;-48
2023/07/03 02:26:27;;;;;;;;;7.25;6.25;;;;;-143.57;100.00;65101.44;5038687;28;45378;-58
2023/07/03 02:28:53;;;;;;;;;4.00;3.00;;;;;-143.57;100.00;65101.44;5038162;28;47038;-55
2023/07/03 02:31:18;;;;;;;;;5.00;5.00;;;;;-143.57;100.00;65101.44;5038280;28;45278;-56
2023/07/03 02:33:43;;;;;;;;;8.75;4.25;;;;;-143.57;100.00;65101.44;5037393;28;45587;-51
2023/07/03 02:36:09;;;;;;;;;3.50;3.50;;;;;-143.57;100.00;65101.44;5038534;28;45357;-60
2023/07/03 02:38:34;;;;;;;;;3.50;3.50;;;;;-143.57;100.00;65101.44;5037215;28;46425;-56
2023/07/03 02:40:59;;;;;;;;;7.00;6.00;;;;;-143.57;100.00;65101.44;5037923;28;45404;-55
2023/07/03 02:43:25;;;;;;;;;6.00;4.75;;;;;-143.57;100.00;65101.44;5038195;28;45305;-46
2023/07/03 02:45:50;;;;;;;;;4.00;3.25;;;;;-143.57;100.00;65101.44;5037656;28;45279;-49
2023/07/03 02:48:15;;;;;;;;;6.50;2.75;;;;;-143.57;100.00;65101.44;5037751;28;53806;-43
2023/07/03 02:50:41;;;;;;;;;3.25;2.50;;;;;-143.57;100.00;65101.44;5037361;28;45313;-46
2023/07/03 02:53:07;;;;;;;;;6.00;4.00;;;;;-143.57;100.00;65101.44;5038133;28;45362;-43
2023/07/03 02:55:33;;;;;;;;;5.75;4.00;;;;;-143.57;100.00;65101.44;5038047;28;45369;-44
2023/07/03 02:57:58;;;;;;;;;5.00;4.00;;;;;-143.57;100.00;65101.44;5037728;28;47566;-43
2023/07/03 03:00:24;;;;;;;;;7.00;5.00;;;;;-143.57;100.00;65101.44;5037763;28;45227;-44
2023/07/03 03:02:49;;;;;;;;;4.50;3.50;;;;;-143.57;100.00;65101.44;5037956;28;45236;-45
2023/07/03 03:05:15;;;;;;;;;7.50;2.75;;;;;-143.57;100.00;65101.44;5037944;28;45219;-50
2023/07/03 03:07:40;;;;;;;;;6.25;3.75;;;;;-143.57;100.00;65101.44;5037591;28;45787;-42
2023/07/03 03:10:07;;;;;;;;;8.00;5.25;;;;;-143.57;100.00;65101.44;5037420;28;45265;-49
2023/07/03 03:12:32;;;;;;;;;6.75;4.75;;;;;-143.57;100.00;65101.44;5037416;28;45487;-50
2023/07/03 03:14:58;;;;;;;;;4.50;4.00;;;;;-143.57;100.00;65101.44;5037797;28;45385;-44
2023/07/03 03:17:23;;;;;;;;;4.75;4.75;;;;;-143.57;100.00;65101.44;5037294;28;46805;-52
2023/07/03 03:19:49;;;;;;;;;7.25;6.00;;;;;-143.57;100.00;65101.44;5037486;28;45370;-44
2023/07/03 03:22:14;;;;;;;;;8.50;6.00;;;;;-143.57;100.00;65101.44;5037689;28;45438;-46
2023/07/03 03:24:40;;;;;;;;;6.75;6.75;;;;;-143.57;100.00;65101.44;5037635;28;45433;-43
2023/07/03 03:27:06;;;;;;;;;12.25;10.25;;;;;-143.57;100.00;65101.44;5037441;28;46069;-49
2023/07/03 03:29:35;;;;;;;;;7.50;7.50;;;;;-143.57;100.00;65101.44;5037158;28;45412;-41
2023/07/03 03:32:02;;;;;;;;;12.00;6.75;;;;;-143.57;100.00;65101.44;5037554;28;45391;-43
2023/07/03 03:34:27;;;;;;;;;6.25;4.75;;;;;-143.57;100.00;65101.44;5037632;28;45333;-50
2023/07/03 03:36:53;;;;;;;;;5.75;5.75;;;;;-143.57;100.00;65101.44;5037048;28;46131;-44
2023/07/03 03:39:18;;;;;;;;;8.00;7.00;;;;;-143.57;100.00;65101.44;5037261;28;45454;-46
2023/07/03 03:41:45;;;;;;;;;10.75;4.25;;;;;-143.57;100.00;65101.44;5037240;28;45325;-51
2023/07/03 03:44:10;;;;;;;;;8.75;7.00;;;;;-143.57;100.00;65101.44;5037455;28;45309;-46
2023/07/03 03:46:36;;;;;;;;;7.25;5.50;;;;;-143.57;100.00;65101.44;5037034;28;46198;-47
2023/07/03 03:49:01;;;;;;;;;13.00;8.00;;;;;-143.57;100.00;65101.44;5037131;28;45456;-42
2023/07/03 03:51:27;;;;;;;;;12.50;7.00;;;;;-143.57;100.00;65101.44;5037183;28;45478;-50
2023/07/03 03:53:53;;;;;;;;;6.00;6.00;;;;;-143.57;100.00;65101.44;5037122;28;45426;-55
2023/07/03 03:56:19;;;;;;;;;9.25;6.00;;;;;-143.57;100.00;65101.44;5036667;28;46278;-41
2023/07/03 03:58:46;;;;;;;;;9.50;8.00;;;;;-143.57;100.00;65101.44;5036942;28;45455;-45
2023/07/03 04:01:12;;;;;;;;;6.00;5.50;;;;;-143.57;100.00;65101.44;5036763;28;45365;-62
2023/07/03 04:03:37;;;;;;;;;6.50;4.75;;;;;-143.57;100.00;65101.44;5037132;28;45609;-56
2023/07/03 04:06:03;;;;;;;;;7.25;5.75;;;;;-143.57;100.00;65101.44;5036967;28;46339;-47
2023/07/03 04:08:28;;;;;;;;;8.50;6.50;;;;;-143.57;100.00;65101.44;5036806;28;45341;-46
2023/07/03 04:10:54;;;;;;;;;7.75;7.00;;;;;-143.57;100.00;65101.44;5036751;28;45264;-57
2023/07/03 04:13:19;;;;;;;;;8.00;5.00;;;;;-143.57;100.00;65101.44;5037044;28;45298;-56
2023/07/03 04:15:57;;;;;;;;;8.00;6.50;;;;;-143.57;100.00;65101.44;5036453;28;47045;-56
2023/07/03 04:18:24;;;;;;;;;7.25;5.50;;;;;-143.57;100.00;65101.44;5036693;28;45327;-52
2023/07/03 04:20:50;;;;;;;;;9.00;6.50;;;;;-143.57;100.00;65101.44;5036825;28;45254;-55
2023/07/03 04:23:16;;;;;;;;;7.25;5.50;;;;;-143.57;100.00;65101.44;5036995;28;45443;-53
2023/07/03 04:25:45;;;;;;;;;9.50;6.00;;;;;-143.57;100.00;65101.44;5036633;28;45308;-58
2023/07/03 04:28:11;;;;;;;;;9.75;8.25;;;;;-143.57;100.00;65101.44;5036270;28;45414;-50
2023/07/03 04:30:37;;;;;;;;;6.00;4.25;;;;;-143.57;100.00;65101.44;5036765;28;45290;-57
2023/07/03 04:33:03;;;;;;;;;8.00;6.25;;;;;-143.57;100.00;65101.44;5036795;28;45298;-58
2023/07/03 04:35:28;;;;;;;;;7.75;5.00;;;;;-143.57;100.00;65101.44;5036309;28;48930;-56
2023/07/03 04:37:53;;;;;;;;;7.00;4.00;;;;;-143.57;100.00;65101.44;5036468;28;45278;-61
2023/07/03 04:40:19;;;;;;;;;6.75;5.00;;;;;-143.57;100.00;65101.44;5036529;28;45262;-60
2023/07/03 04:42:50;;;;;;;;;8.00;4.50;;;;;-143.57;100.00;65101.44;5035952;28;45524;-45
2023/07/03 04:45:16;;;;;;;;;6.75;5.75;;;;;-143.57;100.00;65101.44;5036143;28;46663;-48
2023/07/03 04:47:41;;;;;;;;;7.75;5.00;;;;;-143.57;100.00;65101.44;5036215;28;45524;-43
2023/07/03 04:50:10;;;;;;;;;7.50;5.25;;;;;-143.57;100.00;65101.44;5036277;28;45568;-47
2023/07/03 04:52:39;;;;;;;;;10.00;5.25;;;;;-143.57;100.00;65101.44;5036442;28;45381;-45
2023/07/03 04:55:07;;;;;;;;;6.25;4.25;;;;;-143.57;100.00;65101.44;5036077;28;46386;-51
2023/07/03 04:57:32;;;;;;;;;7.75;5.75;;;;;-143.57;100.00;65101.44;5035168;28;45844;-41
2023/07/03 05:00:00;;;;;;;;;7.75;7.00;;;;;-143.57;100.00;65101.44;5036269;28;45254;-46
2023/07/03 05:02:26;;;;;;;;;8.00;4.50;;;;;-143.57;100.00;65101.44;5036340;28;45419;-46
2023/07/03 05:04:51;;;;;;;;;7.00;4.25;;;;;-143.57;100.00;65101.44;5035864;28;47104;-41
2023/07/03 05:07:19;;;;;;;;;9.00;7.00;;;;;-143.57;100.00;65101.44;5036105;28;45354;-46
2023/07/03 05:09:44;;;;;;;;;7.75;5.00;;;;;-143.57;100.00;65101.44;5036116;28;45317;-44
2023/07/03 05:12:10;;;;;;;;;6.75;6.50;;;;;-143.57;100.00;65101.44;5036039;28;45425;-52
2023/07/03 05:14:35;;;;;;;;;12.75;5.50;;;;;-143.57;100.00;65101.44;5038271;28;46374;-41
2023/07/03 05:17:02;;;;;;;;;13.75;5.75;;;;;-143.57;100.00;65101.44;5039362;28;45822;-43
2023/07/03 05:19:27;;;;;;;;;9.75;6.25;;;;;-143.57;100.00;65101.44;5021572;28;45328;-42
2023/07/03 05:21:53;;;;;;;;;7.50;5.75;;;;;-143.57;100.00;65101.44;5039679;28;45431;-41
2023/07/03 05:24:18;;;;;;;;;7.75;4.75;;;;;-143.57;100.00;65101.44;5039210;28;46297;-50
2023/07/03 05:26:44;;;;;;;;;7.00;5.00;;;;;-143.57;100.00;65101.44;5039261;28;45319;-42
2023/07/03 05:29:10;;;;;;;;;15.50;4.00;;;;;-143.57;100.00;65101.44;5039256;28;45187;-41
2023/07/03 05:31:35;;;;;;;;;6.75;5.00;;;;;-143.57;100.00;65101.44;5039372;28;45349;-47
2023/07/03 05:34:01;;;;;;;;;6.75;4.00;;;;;-143.57;100.00;65101.44;5038971;28;47336;-47
2023/07/03 05:36:26;;;;;;;;;6.75;6.75;;;;;-143.57;100.00;65101.44;5020531;28;45385;-52
2023/07/03 05:38:51;;;;;;;;;9.75;6.00;;;;;-143.57;100.00;65101.44;5039431;28;45187;-47
2023/07/03 05:41:17;;;;;;;;;6.25;6.00;;;;;-143.57;100.00;65101.44;5039418;28;45279;-43
2023/07/03 05:43:42;;;;;;;;;9.00;6.00;;;;;-143.57;100.00;65101.44;5038685;28;46085;-54
2023/07/03 05:46:07;;;;;;;;;5.50;4.00;;;;;-143.57;100.00;65101.44;5013703;28;54444;-41
2023/07/03 05:48:33;;;;;;;;;6.25;3.50;;;;;-143.57;100.00;65101.44;5019003;28;45355;-41
2023/07/03 05:50:58;;;;;;;;;9.75;4.00;;;;;-143.57;100.00;65101.44;5019408;28;45369;-48
2023/07/03 05:53:24;;;;;;;;;1.25;1.00;;;;;-143.57;100.00;65101.44;5023875;28;46995;-40
2023/07/03 05:55:54;;;;;;;;;6.50;4.00;;;;;-143.57;100.00;65101.44;5018820;28;45278;-47
2023/07/03 05:58:19;;;;;;;;;5.50;3.50;;;;;-143.57;100.00;65101.44;5018852;28;45250;-46
2023/07/03 06:00:47;;;;;;;;;4.50;4.50;;;;;-143.57;100.00;65101.44;5019214;28;45228;-50
2023/07/03 06:03:12;;;;;;;;;5.50;4.00;;;;;-143.57;100.00;65101.44;5017854;28;46466;-55
2023/07/03 06:05:37;;;;;;;;;5.00;3.75;;;;;-143.57;100.00;65101.44;5018712;28;45351;-49
2023/07/03 06:08:03;;;;;;;;;5.00;3.75;;;;;-143.57;100.00;65101.44;5018604;28;45342;-47
2023/07/03 06:10:28;;;;;;;;;4.00;4.00;;;;;-143.57;100.00;65101.44;5018972;28;45506;-59
2023/07/03 06:12:53;;;;;;;;;6.75;5.25;;;;;-143.57;100.00;65101.44;5018317;28;47097;-51
2023/07/03 06:15:18;;;;;;;;;5.75;4.00;;;;;-143.57;100.00;65101.44;5018154;28;49382;-42
2023/07/03 06:17:44;;;;;;;;;3.00;3.00;;;;;-143.57;100.00;65101.44;5018651;28;45400;-60
2023/07/03 06:20:10;;;;;;;;;4.25;4.00;;;;;-143.57;100.00;65101.44;5018458;28;45432;-53
2023/07/03 06:22:37;;;;;;;;;4.50;3.25;;;;;-143.57;100.00;65101.44;5017419;28;45426;-61
2023/07/03 06:25:02;;;;;;;;;5.40;4.60;;;;;-143.57;100.00;65101.44;5016976;28;45244;-61
2023/07/03 06:27:27;;;;;;;;;6.50;4.00;;;;;-143.57;100.00;65101.44;5000191;28;45344;-52
2023/07/03 06:29:53;;;;;;;;;4.75;4.75;;;;;-143.57;100.00;65101.44;5018473;28;45428;-47
2023/07/03 06:32:18;;;;;;;;;7.50;4.75;;;;;-143.57;100.00;65101.44;5018359;28;46287;-47
2023/07/03 06:34:43;;;;;;;;;6.00;5.00;;;;;-143.57;100.00;65101.44;5000667;28;45274;-59
2023/07/03 06:37:09;;;;;;;;;6.50;4.00;;;;;-143.57;100.00;65101.44;5018242;28;45295;-53
2023/07/03 06:39:37;;;;;;;;;4.25;3.50;;;;;-143.57;100.00;65101.44;5018269;28;45228;-56
2023/07/03 06:42:03;;;;;;;;;5.00;3.25;;;;;-143.57;100.00;65101.44;5017995;28;45472;-40
2023/07/03 06:44:29;;;;;;;;;11.00;5.00;;;;;-143.57;100.00;65101.44;5017738;28;45560;-41
2023/07/03 06:46:54;;;;;;;;;5.00;3.25;;;;;-143.57;100.00;65101.44;5018091;28;45298;-49
2023/07/03 06:49:22;;;;;;;;;3.25;3.00;;;;;-143.57;100.00;65101.44;5018119;28;45274;-52
2023/07/03 06:51:48;;;;;;;;;4.00;3.50;;;;;-143.57;100.00;65101.44;5017789;28;46104;-54
2023/07/03 06:54:13;;;;;;;;;6.50;4.00;;;;;-143.57;100.00;65101.44;5017848;28;45338;-55
2023/07/03 06:56:38;;;;;;;;;4.00;4.00;;;;;-143.57;100.00;65101.44;4983633;28;45298;-49
2023/07/03 06:59:04;;;;;;;;;3.25;3.25;;;;;-143.57;100.00;65101.44;5018069;28;45310;-60
2023/07/03 07:01:29;;;;;;;;;4.00;4.00;;;;;-143.57;100.00;65101.44;5017564;28;45924;-54
2023/07/03 07:03:55;;;;;;;;;4.75;3.00;;;;;-143.57;100.00;65101.44;5017525;28;45498;-59
2023/07/03 07:06:23;;;;;;;;;8.25;5.50;;;;;-143.57;100.00;65101.44;5017921;28;45335;-54
2023/07/03 07:08:49;;;;;;;;;10.00;2.75;;;;;-143.57;100.00;65101.44;5017675;28;45434;-54
2023/07/03 07:11:35;;;;;;;;;7.20;4.00;;;;;-143.57;100.00;65101.44;5016800;28;45437;-58
2023/07/03 07:14:01;;;;;;;;;7.00;6.80;;;;;-143.57;100.00;65101.44;5017247;28;45583;-40
2023/07/03 07:16:34;;;;;;;;;5.00;4.00;;;;;-143.57;100.00;65101.44;5017314;28;45454;-48
2023/07/03 07:19:01;;;;;;;;;4.25;4.25;;;;;-143.57;100.00;65101.44;5017506;28;45437;-42
2023/07/03 07:21:29;;;;;;;;;2.75;1.75;;;;;-143.57;100.00;65101.44;5017553;28;45409;-45
2023/07/03 07:24:01;;;;;;;;;4.00;4.00;;;;;-143.57;100.00;65101.44;5017161;28;45261;-44
2023/07/03 07:26:33;;;;;;;;;5.40;4.00;;;;;-143.57;100.00;65101.44;5017458;28;45424;-40
2023/07/03 07:29:00;;;;;;;;;5.25;5.00;;;;;-143.57;100.00;65101.44;5017617;28;45329;-48
2023/07/03 07:31:26;;;;;;;;;3.40;1.40;;;;;-143.57;100.00;65101.44;5016519;28;46958;-50
2023/07/03 07:33:52;;;;;;;;;4.60;4.60;;;;;-143.57;100.00;65101.44;5017194;28;45343;-53
2023/07/03 07:36:20;;;;;;;;;5.25;4.00;;;;;-143.57;100.00;65101.44;5016890;28;45359;-48
2023/07/03 07:38:47;;;;;;;;;4.50;3.00;;;;;-143.57;100.00;65101.44;4999020;28;45693;-51
2023/07/03 07:41:13;;;;;;;;;3.75;3.75;;;;;-143.57;100.00;65101.44;5017225;28;46135;-41
2023/07/03 07:43:38;;;;;;;;;5.75;5.75;;;;;-143.57;100.00;65101.44;5017042;28;45256;-46
2023/07/03 07:46:03;;;;;;;;;5.50;3.25;;;;;-143.57;100.00;65101.44;5017103;28;45310;-42
2023/07/03 07:48:29;;;;;;;;;4.00;2.50;;;;;-143.57;100.00;65101.44;5017002;28;45512;-42
2023/07/03 07:50:55;;;;;;;;;5.00;4.25;;;;;-143.57;100.00;65101.44;5016813;28;46138;-47
2023/07/03 07:53:20;;;;;;;;;3.50;3.25;;;;;-143.57;100.00;65101.44;5016976;28;45287;-42
2023/07/03 07:55:46;;;;;;;;;4.50;4.50;;;;;-143.57;100.00;65101.44;5017245;28;45267;-42
2023/07/03 07:58:11;;;;;;;;;5.00;5.00;;;;;-143.57;100.00;65101.44;5017231;28;45426;-43
2023/07/03 08:00:40;;;;;;;;;3.25;3.00;;;;;-143.57;100.00;65101.44;5017089;28;45302;-41
2023/07/03 08:03:05;;;;;;;;;4.20;4.20;;;;;-143.57;100.00;65101.44;5016939;28;45255;-41
2023/07/03 08:05:31;;;;;;;;;7.25;4.75;;;;;-143.57;100.00;65101.44;5016952;28;45243;-41
2023/07/03 08:07:56;;;;;;;;;5.00;3.00;;;;;-143.57;100.00;65101.44;5017116;28;45243;-39
2023/07/03 08:10:21;;;;;;;;;6.50;6.00;;;;;-143.57;100.00;65101.44;5016640;28;46916;-40
2023/07/03 08:12:47;;;;;;;;;7.50;5.50;;;;;-143.57;100.00;65101.44;5016633;28;45573;-44
2023/07/03 08:15:12;;;;;;;;;4.75;4.00;;;;;-143.57;100.00;65101.44;4998206;28;45240;-51
2023/07/03 08:17:38;;;;;;;;;6.25;4.00;;;;;-143.57;100.00;65101.44;5016946;28;45334;-50
2023/07/03 08:20:11;;;;;;;;;4.25;4.00;;;;;-143.57;100.00;65101.44;5016511;28;46181;-45
2023/07/03 08:22:36;;;;;;;;;3.00;3.00;;;;;-143.57;100.00;65101.44;5015738;28;45325;-46
2023/07/03 08:25:02;;;;;;;;;5.00;5.00;;;;;-143.57;100.00;65101.44;5016577;28;45579;-53
2023/07/03 08:27:27;;;;;;;;;5.00;4.00;;;;;-143.57;100.00;65101.44;5016990;28;45378;-47
2023/07/03 08:29:52;;;;;;;;;3.75;3.75;;;;;-143.57;100.00;65101.44;5016059;28;50541;-51
2023/07/03 08:32:19;;;;;;;;;5.50;4.00;;;;;-143.57;100.00;65101.44;5016556;28;45343;-50
2023/07/03 08:34:45;;;;;;;;;5.40;3.40;;;;;-143.57;100.00;65101.44;5015729;28;45476;-43
2023/07/03 08:37:10;;;;;;;;;5.00;5.00;;;;;-143.57;100.00;65101.44;5016769;28;45306;-51
2023/07/03 08:39:38;;;;;;;;;7.00;6.00;;;;;-143.57;100.00;65101.44;5016308;28;45437;-46
2023/07/03 08:42:16;;;;;;;;;6.00;6.00;;;;;-143.57;100.00;65101.44;5016089;28;45476;-59
2023/07/03 08:44:41;;;;;;;;;6.20;2.60;;;;;-143.57;100.00;65101.44;5016242;28;45331;-45
2023/07/03 08:47:14;;;;;;;;;6.50;5.00;;;;;-143.57;100.00;65101.44;5016484;28;45313;-41
2023/07/03 08:49:44;;;;;;;;;7.20;3.60;;;;;-143.57;100.00;65101.44;5018691;28;45655;-48
2023/07/03 08:52:10;;;;;;;;;7.20;4.60;;;;;-143.57;100.00;65101.44;5019527;28;45452;-49
2023/07/03 08:54:37;;;;;;;;;5.80;4.00;;;;;-143.57;100.00;65101.44;5019897;28;45407;-47
2023/07/03 08:57:05;;;;;;;;;6.00;6.00;;;;;-143.57;100.00;65101.44;5019769;28;45414;-44
2023/07/03 08:59:30;;;;;;;;;5.00;4.00;;;;;-143.57;100.00;65101.44;5019344;28;45442;-47
2023/07/03 09:02:06;;;;;;;;;5.00;5.00;;;;;-143.57;100.00;65101.44;5019501;28;45295;-50
2023/07/03 09:04:57;;;;;;;;;3.20;3.20;;;;;-143.57;100.00;65101.44;5019476;28;45216;-48
2023/07/03 09:07:46;;;;;;;;;4.60;4.60;;;;;-143.57;100.00;65101.44;5019628;28;45403;-50
2023/07/03 09:10:27;;;;;;;;;5.20;5.20;;;;;-143.57;100.00;65101.44;5018264;28;45574;-42
2023/07/03 09:13:02;;;;;;;;;5.00;5.00;;;;;-143.57;100.00;65101.44;5019059;28;45337;-52
2023/07/03 09:15:37;;;;;;;;;7.40;4.00;;;;;-143.57;100.00;65101.44;5019116;28;46037;-51
2023/07/03 09:18:11;;;;;;;;;8.50;4.25;;;;;-143.57;100.00;65101.44;5019848;28;45311;-43
2023/07/03 09:20:37;;;;;;;;;4.80;4.00;;;;;-143.57;100.00;65101.44;5017865;28;46158;-56
2023/07/03 09:23:19;;;;;;;;;3.00;3.00;;;;;-143.57;100.00;65101.44;5018342;28;45193;-48
2023/07/03 09:25:46;;;;;;;;;11.00;9.20;;;;;-143.57;100.00;65101.44;5019356;28;45422;-53
2023/07/03 09:28:12;;;;;;;;;5.75;4.50;;;;;-143.57;100.00;65101.44;5019483;28;45361;-61
2023/07/03 09:30:38;;;;;;;;;5.00;4.50;;;;;-143.57;100.00;65101.44;5018875;28;45931;-48
2023/07/03 09:33:06;;;;;;;;;6.40;6.40;;;;;-143.57;100.00;65101.44;5019265;28;45322;-45
2023/07/03 09:35:42;;;;;;;;;6.20;5.00;;;;;-143.57;100.00;65101.44;5019196;28;45199;-61
2023/07/03 09:38:21;;;;;;;;;9.80;4.80;;;;;-143.57;100.00;65101.44;5019454;28;45402;-59
2023/07/03 09:40:53;;;;;;;;;7.80;5.00;;;;;-143.57;100.00;65101.44;5019297;28;45448;-56
2023/07/03 09:43:26;;;;;;;;;6.60;4.60;;;;;-143.57;100.00;65101.44;5019089;28;45460;-42
2023/07/03 09:46:10;;;;;;;;;4.40;4.00;;;;;-143.57;100.00;65101.44;5019094;28;45322;-51
2023/07/03 09:48:36;;;;;;;;;4.80;4.40;;;;;-143.57;100.00;65101.44;5018938;28;45322;-44
2023/07/03 09:51:24;;;;;;;;;3.00;3.00;;;;;-143.57;100.00;65101.44;5018761;28;46317;-41
2023/07/03 09:53:50;;;;;;;;;3.00;2.60;;;;;-143.57;100.00;65101.44;5018522;28;45452;-40
2023/07/03 09:56:21;;;;;;;;;3.75;3.75;;;;;-143.57;100.00;65101.44;5018829;28;45378;-46
2023/07/03 09:58:49;;;;;;;;;4.60;3.20;;;;;-143.57;100.00;65101.44;5018385;28;45484;-41
2023/07/03 10:01:19;;;;;;;;;3.60;3.60;;;;;-143.57;100.00;65101.44;5018379;28;45482;-46
2023/07/03 10:03:45;;;;;;;;;6.40;4.60;;;;;-143.57;100.00;65101.44;5018677;28;45489;-43
2023/07/03 10:06:17;;;;;;;;;4.00;3.50;;;;;-143.57;100.00;65101.44;5018686;28;45310;-48
2023/07/03 10:08:50;;;;;;;;;5.40;4.60;;;;;-143.57;100.00;65101.44;5018648;28;45356;-42
2023/07/03 10:11:26;;;;;;;;;4.80;4.40;;;;;-143.57;100.00;65101.44;5018692;28;45330;-54
2023/07/03 10:13:52;;;;;;;;;3.00;3.00;;;;;-143.57;100.00;65101.44;5018286;28;45318;-59
2023/07/03 10:16:21;;;;;;;;;3.60;3.40;;;;;-143.57;100.00;65101.44;5018060;28;45466;-45
2023/07/03 10:18:51;;;;;;;;;4.00;4.00;;;;;-143.57;100.00;65101.44;5018399;28;45477;-45
2023/07/03 10:21:20;;;;;;;;;6.20;6.20;;;;;-143.57;100.00;65101.44;5018196;28;46223;-41
2023/07/03 10:23:47;;;;;;;;;6.40;4.00;;;;;-143.57;100.00;65101.44;5000182;28;45367;-45
2023/07/03 10:26:47;;;;;;;;;6.00;3.80;;;;;-143.57;100.00;65101.44;5017923;28;45305;-40
2023/07/03 10:29:47;;;;;;;;;4.60;3.20;;;;;-143.57;100.00;65101.44;5018361;28;45373;-40
2023/07/03 10:32:17;;;;;;;;;3.80;3.80;;;;;-143.57;100.00;65101.44;5018185;28;46294;-39
2023/07/03 10:35:02;;;;;;;;;4.60;4.40;;;;;-143.57;100.00;65101.44;5017864;28;45502;-40
2023/07/03 10:37:33;;;;;;;;;5.00;5.00;;;;;-143.57;100.00;65101.44;5018335;28;45355;-43
2023/07/03 10:40:12;;;;;;;;;7.00;5.40;;;;;-143.57;100.00;65101.44;5018226;28;45434;-44
2023/07/03 10:42:56;;;;;;;;;4.00;4.00;;;;;-143.57;100.00;65101.44;5017871;28;46279;-49
2023/07/03 10:45:24;;;;;;;;;3.60;3.60;;;;;-143.57;100.00;65101.44;5017677;28;45276;-40
2023/07/03 10:48:01;;;;;;;;;3.80;2.00;;;;;-143.57;100.00;65101.44;5018080;28;45243;-40
2023/07/03 10:50:33;;;;;;;;;4.60;4.00;;;;;-143.57;100.00;65101.44;5018020;28;45489;-40
2023/07/03 10:53:08;;;;;;;;;4.60;4.00;;;;;-143.57;100.00;65101.44;5017889;28;45359;-39
2023/07/03 10:55:43;;;;;;;;;5.00;4.00;;;;;-143.57;100.00;65101.44;5016958;28;45187;-40
2023/07/03 10:58:27;;;;;;;;;2.20;2.20;;;;;-143.57;100.00;65101.44;5000189;28;45378;-40
2023/07/03 11:01:04;;;;;;;;;4.60;3.80;;;;;-143.57;100.00;65101.44;5017889;28;45283;-43
2023/07/03 11:04:07;;;;;;;;;5.80;3.40;;;;;-143.57;100.00;65101.44;5017719;28;45306;-40
2023/07/03 11:06:46;;;;;;;;;10.20;4.20;;;;;-143.57;100.00;65101.44;5017532;28;45422;-42
2023/07/03 11:09:16;;;;;;;;;4.00;4.00;;;;;-143.57;100.00;65101.44;5017651;28;45388;-41
2023/07/03 11:11:57;;;;;;;;;3.40;3.00;;;;;-143.57;100.00;65101.44;5016983;28;45532;-47
2023/07/03 11:14:30;;;;;;;;;2.60;2.60;;;;;-143.57;100.00;65101.44;5017255;28;45271;-41